Time;durP1;ratioP1;P1;durP2;ratioP2;P2;SDS_P1;SDS_P2;PMS_P1;PMS_P2;Temp;Humidity;BMP_temperature;BMP_pressure;BME280_temperature;BME280_humidity;BME280_pressure;Samples;Min_cycle;Max_cycle;Signal;HPM_P1;HPM_P2
2021/12/16 00:01:59;;;;;;;49.30;23.70;;;;;;;7.63;83.91;101290.54;126720;1314;108687;-79
2021/12/16 00:05:30;;;;;;;43.90;20.00;;;;;;;7.58;84.12;101282.55;126726;1309;109025;-76
2021/12/16 00:08:39;;;;;;;41.40;19.30;;;;;;;7.58;84.17;101275.34;126385;1309;108939;-76
2021/12/16 00:32:29;;;;;;;43.70;20.10;;;;;;;7.68;84.39;101259.89;126537;1309;108820;-77
2021/12/16 00:35:34;;;;;;;44.10;21.40;;;;;;;7.75;84.34;101260.84;126411;1315;108731;-76
2021/12/16 00:38:42;;;;;;;39.20;18.40;;;;;;;7.75;84.47;101261.38;126732;1312;108709;-78
2021/12/16 00:41:51;;;;;;;37.70;17.30;;;;;;;7.73;84.48;101265.55;126647;1309;108917;-78
2021/12/16 00:45:23;;;;;;;43.30;19.60;;;;;;;7.73;84.33;101269.11;126812;1312;107887;-79
2021/12/16 00:48:59;;;;;;;38.70;18.90;;;;;;;7.75;84.54;101264.17;126407;1308;109190;-78
2021/12/16 00:55:40;;;;;;;41.10;20.20;;;;;;;7.77;84.41;101266.84;126442;1313;109029;-80
2021/12/16 00:58:52;;;;;;;39.50;17.90;;;;;;;7.76;84.59;101273.14;126693;1310;108920;-80
2021/12/16 01:02:10;;;;;;;36.40;16.70;;;;;;;7.75;84.56;101271.63;126437;1309;108719;-80
2021/12/16 01:09:10;;;;;;;41.80;20.40;;;;;;;7.75;84.62;101270.92;126644;1309;106781;-79
2021/12/16 01:36:33;;;;;;;36.90;16.80;;;;;;;7.94;84.32;101254.00;126841;1309;108812;-80
2021/12/16 01:46:43;;;;;;;36.00;18.30;;;;;;;7.98;84.31;101247.65;126173;1316;108950;-77
2021/12/16 01:49:56;;;;;;;44.40;24.40;;;;;;;8.00;84.36;101251.55;126666;1315;108832;-79
2021/12/16 01:53:17;;;;;;;44.20;21.20;;;;;;;7.99;84.25;101247.54;126560;1309;107713;-78
2021/12/16 01:56:37;;;;;;;39.20;17.00;;;;;;;7.98;84.01;101246.05;126663;1309;108988;-78
2021/12/16 01:59:47;;;;;;;35.70;17.80;;;;;;;7.97;83.97;101242.74;126565;1309;109180;-78
2021/12/16 02:02:59;;;;;;;38.00;18.80;;;;;;;7.96;84.10;101238.91;126523;1312;108905;-78
2021/12/16 02:06:11;;;;;;;40.60;20.80;;;;;;;7.98;84.21;101236.33;126778;1309;223334;-78
2021/12/16 02:09:25;;;;;;;41.00;20.00;;;;;;;7.99;83.89;101238.70;126858;1309;107660;-79
2021/12/16 02:12:50;;;;;;;38.10;20.60;;;;;;;7.99;84.06;101237.46;126412;1309;108696;-77
2021/12/16 02:29:47;;;;;;;37.10;19.70;;;;;;;8.03;84.11;101245.19;126354;1309;108849;-78
2021/12/16 02:33:10;;;;;;;37.40;20.70;;;;;;;8.04;83.90;101239.02;126793;1309;108804;-78
2021/12/16 02:36:25;;;;;;;38.00;18.80;;;;;;;8.03;84.00;101238.81;126499;1309;108974;-78
2021/12/16 02:39:33;;;;;;;36.00;17.50;;;;;;;8.00;84.10;101236.30;126748;1309;107859;-78
2021/12/16 02:42:53;;;;;;;36.60;18.80;;;;;;;8.00;84.00;101234.20;126615;1311;110179;-78
2021/12/16 02:49:27;;;;;;;40.80;21.40;;;;;;;8.08;84.22;101234.67;126527;1312;108542;-77
2021/12/16 02:52:33;;;;;;;40.50;20.60;;;;;;;8.08;83.92;101239.47;126576;1309;108745;-77
2021/12/16 02:55:38;;;;;;;36.10;18.20;;;;;;;8.05;83.82;101238.63;126512;1309;108929;-78
2021/12/16 02:58:49;;;;;;;37.60;19.40;;;;;;;8.03;84.01;101241.23;126381;1309;108885;-79
2021/12/16 03:01:57;;;;;;;34.90;19.00;;;;;;;8.04;83.81;101241.88;126850;1310;109101;-79
2021/12/16 03:05:03;;;;;;;38.70;20.50;;;;;;;8.06;83.92;101243.70;126415;1309;108756;-76
2021/12/16 03:08:09;;;;;;;39.30;20.70;;;;;;;8.05;83.84;101243.58;126291;1314;108729;-76
2021/12/16 03:11:24;;;;;;;39.00;20.80;;;;;;;8.05;83.91;101238.30;126530;1309;108927;-77
2021/12/16 03:14:36;;;;;;;36.40;19.10;;;;;;;8.02;83.91;101238.85;126491;1313;108802;-78
2021/12/16 03:17:50;;;;;;;34.60;18.10;;;;;;;7.99;83.85;101239.27;126517;1312;107469;-78
2021/12/16 03:21:02;;;;;;;40.00;21.10;;;;;;;8.00;83.97;101238.13;126884;1309;109019;-80
2021/12/16 03:24:35;;;;;;;38.50;21.20;;;;;;;7.98;83.82;101237.20;126775;1309;108718;-81
2021/12/16 03:28:20;;;;;;;37.50;20.70;;;;;;;8.00;83.87;101245.02;126625;1309;108765;-80
2021/12/16 03:31:55;;;;;;;38.70;22.70;;;;;;;7.99;83.87;101248.98;126996;1309;108891;-79
2021/12/16 03:35:25;;;;;;;35.50;18.70;;;;;;;7.96;83.77;101248.65;127095;1309;108810;-80
2021/12/16 03:38:35;;;;;;;33.20;18.30;;;;;;;7.93;83.82;101248.88;127007;1309;108929;-80
2021/12/16 03:41:40;;;;;;;35.40;20.30;;;;;;;7.95;84.03;101246.48;126774;1309;108882;-81
2021/12/16 03:44:53;;;;;;;35.70;20.20;;;;;;;7.97;83.81;101250.03;126897;1312;108704;-79
2021/12/16 03:48:00;;;;;;;32.90;19.40;;;;;;;7.99;83.89;101247.00;126753;1309;108618;-78
2021/12/16 03:51:08;;;;;;;32.80;19.90;;;;;;;8.01;83.83;101245.88;126802;1309;107236;-81
2021/12/16 03:54:17;;;;;;;32.80;19.30;;;;;;;7.99;83.66;101245.30;126819;1309;108970;-83
2021/12/16 03:57:26;;;;;;;32.20;17.50;;;;;;;7.95;83.80;101239.56;126901;1309;108890;-83
2021/12/16 04:00:36;;;;;;;34.20;20.30;;;;;;;7.95;83.87;101236.55;126755;1309;108582;-82
2021/12/16 04:03:42;;;;;;;42.50;21.90;;;;;;;7.97;84.07;101235.33;126646;1309;109084;-78
2021/12/16 04:06:48;;;;;;;33.30;19.40;;;;;;;7.98;83.82;101232.42;126884;1309;109968;-78
2021/12/16 04:09:54;;;;;;;34.60;20.30;;;;;;;7.98;83.94;101232.21;126916;1309;108852;-76
2021/12/16 04:13:05;;;;;;;31.80;18.60;;;;;;;7.97;83.50;101231.98;126856;1309;108167;-78
2021/12/16 04:16:11;;;;;;;34.30;18.80;;;;;;;7.87;83.64;101233.55;126755;1309;109006;-77
2021/12/16 04:19:20;;;;;;;61.90;38.90;;;;;;;7.82;83.66;101231.13;126311;1309;108978;-74
2021/12/16 04:22:30;;;;;;;39.70;24.30;;;;;;;7.85;83.89;101227.34;126360;1309;108811;-75
2021/12/16 04:25:40;;;;;;;37.00;22.30;;;;;;;7.87;83.51;101230.19;126396;1309;108990;-75
2021/12/16 04:28:47;;;;;;;35.60;20.80;;;;;;;7.83;83.59;101226.76;126391;1309;108876;-75
2021/12/16 04:31:55;;;;;;;40.30;22.40;;;;;;;7.81;83.73;101227.63;126361;1313;108735;-75
2021/12/16 04:35:01;;;;;;;33.10;19.10;;;;;;;7.80;83.48;101228.55;126626;1309;108902;-74
2021/12/16 04:38:08;;;;;;;42.70;25.10;;;;;;;7.75;83.75;101225.21;126366;1309;109026;-75
2021/12/16 04:41:16;;;;;;;37.70;23.70;;;;;;;7.70;83.46;101224.02;126323;1313;108919;-76
2021/12/16 04:44:24;;;;;;;34.20;21.30;;;;;;;7.65;83.62;101217.58;126347;1309;108930;-76
2021/12/16 04:47:41;;;;;;;34.30;20.90;;;;;;;7.63;83.60;101220.38;126333;1312;109866;-78
2021/12/16 04:50:47;;;;;;;33.20;20.80;;;;;;;7.59;83.63;101227.06;126398;1310;108880;-76
2021/12/16 04:53:53;;;;;;;29.10;17.70;;;;;;;7.56;83.67;101224.66;126375;1309;109508;-76
2021/12/16 04:57:01;;;;;;;31.60;20.70;;;;;;;7.55;83.48;101229.64;126372;1309;108895;-75
2021/12/16 05:00:12;;;;;;;32.20;20.50;;;;;;;7.54;83.72;101223.35;126339;1309;108825;-75
2021/12/16 05:03:21;;;;;;;33.70;21.60;;;;;;;7.55;83.79;101217.13;126360;1309;108787;-75
2021/12/16 05:06:27;;;;;;;33.90;22.40;;;;;;;7.57;83.78;101205.61;126378;1309;108895;-75
2021/12/16 05:12:59;;;;;;;35.60;19.40;;;;;;;7.53;83.83;101206.60;126451;1309;108923;-76
2021/12/16 05:16:07;;;;;;;39.70;24.50;;;;;;;7.55;83.52;101198.52;126722;1312;108776;-77
2021/12/16 05:19:15;;;;;;;54.50;38.70;;;;;;;7.59;83.71;101193.40;126851;1309;109073;-77
2021/12/16 05:26:07;;;;;;;34.10;23.90;;;;;;;7.65;83.20;101204.69;126517;1309;108863;-75
2021/12/16 05:29:13;;;;;;;38.60;23.30;;;;;;;7.59;83.13;101207.21;126620;1312;109183;-76
2021/12/16 05:32:23;;;;;;;34.70;19.50;;;;;;;7.56;83.62;101208.30;126605;1309;108878;-76
2021/12/16 05:35:29;;;;;;;31.50;20.30;;;;;;;7.59;83.50;101207.61;126584;1312;108981;-77
2021/12/16 05:38:36;;;;;;;114.90;61.10;;;;;;;7.61;83.47;101209.00;126581;1309;108835;-77
2021/12/16 05:41:42;;;;;;;116.20;62.50;;;;;;;7.64;83.13;101206.13;126494;1313;109024;-76
2021/12/16 05:44:48;;;;;;;214.80;103.70;;;;;;;7.66;83.17;101208.65;126501;1315;107263;-75
2021/12/16 05:47:55;;;;;;;257.90;113.20;;;;;;;7.69;83.33;101210.61;126708;1309;108729;-76
2021/12/16 05:51:04;;;;;;;250.90;107.10;;;;;;;7.70;83.33;101210.53;126305;1314;108924;-76
2021/12/16 05:54:13;;;;;;;55.20;31.40;;;;;;;7.73;83.43;101211.93;126467;1312;108771;-75
2021/12/16 05:57:28;;;;;;;40.90;24.70;;;;;;;7.76;83.18;101218.40;126689;1309;108833;-77
2021/12/16 06:00:43;;;;;;;44.00;30.60;;;;;;;7.76;83.34;101216.45;126557;1309;108869;-74
2021/12/16 06:03:52;;;;;;;43.80;30.40;;;;;;;7.76;83.34;101211.31;126746;1309;109033;-75
2021/12/16 06:06:57;;;;;;;37.30;24.60;;;;;;;7.74;83.30;101219.98;126656;1312;108890;-76
2021/12/16 06:10:04;;;;;;;43.30;26.30;;;;;;;7.71;83.38;101214.39;126615;1312;108948;-76
2021/12/16 06:13:11;;;;;;;40.80;25.10;;;;;;;7.71;83.40;101208.50;126525;1312;109031;-76
2021/12/16 06:26:35;;;;;;;44.60;21.50;;;;;;;7.74;83.68;101213.60;126213;1313;109221;-74
2021/12/16 06:29:44;;;;;;;38.60;21.40;;;;;;;7.73;83.64;101216.86;126337;1312;108603;-74
2021/12/16 06:32:50;;;;;;;49.20;28.70;;;;;;;7.73;83.68;101216.19;126443;1309;109030;-74
2021/12/16 06:35:57;;;;;;;38.70;25.10;;;;;;;7.75;83.90;101214.61;126377;1310;108725;-74
2021/12/16 06:39:04;;;;;;;37.20;23.40;;;;;;;7.74;83.67;101215.19;126684;1309;108904;-75
2021/12/16 06:42:15;;;;;;;46.80;25.20;;;;;;;7.74;83.85;101221.95;126809;1309;108949;-76
2021/12/16 06:45:32;;;;;;;44.80;22.00;;;;;;;7.71;83.89;101218.08;126761;1313;108750;-76
2021/12/16 06:48:40;;;;;;;29.40;18.30;;;;;;;7.70;84.00;101215.48;126392;1309;108647;-76
2021/12/16 06:51:51;;;;;;;28.00;18.00;;;;;;;7.67;84.04;101222.23;126798;1309;109924;-74
2021/12/16 06:55:10;;;;;;;28.20;18.00;;;;;;;7.63;84.20;101223.97;126743;1309;107741;-75
2021/12/16 06:58:22;;;;;;;30.70;20.50;;;;;;;7.58;84.13;101228.35;126732;1309;108529;-76
2021/12/16 07:01:37;;;;;;;76.20;43.90;;;;;;;7.57;83.96;101226.89;126776;1309;108394;-75
2021/12/16 07:04:45;;;;;;;46.00;28.50;;;;;;;7.54;84.18;101232.04;126788;1309;109263;-76
2021/12/16 07:07:52;;;;;;;80.00;47.50;;;;;;;7.51;84.24;101234.39;126727;1309;108887;-76
2021/12/16 07:10:58;;;;;;;62.40;37.70;;;;;;;7.56;84.32;101235.29;126855;1309;108904;-74
2021/12/16 07:14:05;;;;;;;97.50;61.90;;;;;;;7.61;84.22;101237.52;126889;1309;108793;-75
2021/12/16 07:17:14;;;;;;;66.00;40.20;;;;;;;7.64;84.29;101242.96;126814;1312;107596;-75
2021/12/16 07:20:22;;;;;;;38.20;24.70;;;;;;;7.65;84.21;101242.59;126929;1309;109688;-75
2021/12/16 07:23:28;;;;;;;88.10;56.20;;;;;;;7.62;84.54;101239.92;126548;1309;108958;-73
2021/12/16 07:26:34;;;;;;;86.50;53.40;;;;;;;7.65;84.56;101234.75;126525;1310;108888;-74
2021/12/16 07:29:39;;;;;;;41.00;24.70;;;;;;;7.71;84.33;101233.50;126889;1309;109165;-76
2021/12/16 07:32:45;;;;;;;57.20;35.00;;;;;;;7.69;84.47;101235.02;126452;1309;108636;-75
2021/12/16 07:35:51;;;;;;;96.50;54.40;;;;;;;7.61;84.52;101232.94;126784;1309;108820;-75
2021/12/16 07:38:57;;;;;;;55.80;31.80;;;;;;;7.59;84.47;101223.17;126865;1309;108936;-76
2021/12/16 07:42:02;;;;;;;126.50;52.20;;;;;;;7.64;84.60;101216.65;126585;1309;108811;-76
2021/12/16 07:45:09;;;;;;;109.60;49.20;;;;;;;7.72;84.73;101219.08;126601;1309;108853;-75
2021/12/16 07:48:17;;;;;;;83.80;40.60;;;;;;;7.76;84.75;101215.77;126721;1310;108843;-76
2021/12/16 07:51:23;;;;;;;115.50;55.70;;;;;;;7.74;84.71;101221.73;126916;1309;109115;-75
2021/12/16 07:54:29;;;;;;;63.90;33.40;;;;;;;7.69;84.62;101216.95;126893;1313;108772;-75
2021/12/16 07:57:35;;;;;;;73.50;36.30;;;;;;;7.69;84.79;101216.27;126581;1309;108919;-74
2021/12/16 08:00:41;;;;;;;61.30;35.40;;;;;;;7.67;84.87;101216.22;126703;1309;108776;-76
2021/12/16 08:03:47;;;;;;;116.20;68.40;;;;;;;7.59;85.01;101216.09;126531;1312;108779;-75
2021/12/16 08:06:54;;;;;;;36.20;21.60;;;;;;;7.59;85.27;101217.71;126514;1309;106864;-74
2021/12/16 08:10:00;;;;;;;32.00;20.70;;;;;;;7.58;85.17;101214.25;126553;1309;108993;-74
2021/12/16 08:13:06;;;;;;;28.00;16.80;;;;;;;7.61;85.17;101216.16;126890;1309;108995;-76
2021/12/16 08:16:12;;;;;;;27.10;17.20;;;;;;;7.63;85.15;101219.14;126909;1309;108630;-74
2021/12/16 08:19:17;;;;;;;42.30;24.70;;;;;;;7.61;85.25;101231.55;126828;1309;108995;-76
2021/12/16 08:22:23;;;;;;;31.10;20.10;;;;;;;7.59;85.32;101229.07;126787;1314;108897;-75
2021/12/16 08:25:30;;;;;;;31.30;19.20;;;;;;;7.51;85.63;101239.16;126395;1309;108739;-75
2021/12/16 08:28:36;;;;;;;32.30;19.90;;;;;;;7.40;86.08;101231.98;126451;1310;108992;-75
2021/12/16 08:31:42;;;;;;;43.40;27.90;;;;;;;7.44;85.66;101233.46;126551;1309;108880;-76
2021/12/16 08:34:47;;;;;;;37.20;23.10;;;;;;;7.53;85.76;101233.53;126435;1309;108878;-76
2021/12/16 08:37:53;;;;;;;34.60;22.10;;;;;;;7.57;85.58;101240.70;126508;1309;108807;-76
2021/12/16 08:41:01;;;;;;;32.10;18.90;;;;;;;7.58;85.58;101244.31;126848;1310;109182;-75
2021/12/16 08:44:08;;;;;;;26.50;16.10;;;;;;;7.58;86.02;101244.67;126911;1308;108714;-76
2021/12/16 08:47:19;;;;;;;38.30;24.40;;;;;;;7.54;85.91;101251.34;126907;1309;108020;-76
2021/12/16 08:50:29;;;;;;;31.40;20.30;;;;;;;7.55;85.72;101251.80;126870;1310;108728;-76
2021/12/16 08:53:35;;;;;;;27.20;17.90;;;;;;;7.61;85.89;101258.13;126864;1309;108978;-76
2021/12/16 08:56:41;;;;;;;27.10;18.00;;;;;;;7.59;86.18;101250.27;126846;1309;109083;-76
2021/12/16 08:59:48;;;;;;;24.60;16.20;;;;;;;7.60;85.70;101245.39;126461;1309;107772;-74
2021/12/16 09:02:53;;;;;;;38.10;22.40;;;;;;;7.62;85.84;101246.52;126508;1309;109719;-74
2021/12/16 09:06:00;;;;;;;57.60;33.20;;;;;;;7.58;85.90;101247.14;126689;1312;107902;-76
2021/12/16 09:09:07;;;;;;;30.70;18.10;;;;;;;7.62;86.05;101247.44;126859;1309;108925;-76
2021/12/16 09:12:38;;;;;;;27.10;16.70;;;;;;;7.56;86.46;101250.48;126901;1309;108876;-76
2021/12/16 09:15:48;;;;;;;26.60;17.90;;;;;;;7.46;87.10;101239.51;126726;1309;108617;-74
2021/12/16 09:18:55;;;;;;;27.30;19.00;;;;;;;7.48;86.61;101242.91;126389;1309;108855;-74
2021/12/16 09:22:00;;;;;;;24.40;15.50;;;;;;;7.45;87.02;101243.08;126863;1309;108922;-75
2021/12/16 09:25:08;;;;;;;25.00;15.90;;;;;;;7.45;86.82;101236.70;126782;1310;109961;-75
2021/12/16 09:28:14;;;;;;;23.80;15.20;;;;;;;7.47;86.91;101240.44;126848;1309;108808;-76
2021/12/16 09:31:26;;;;;;;21.20;13.30;;;;;;;7.48;86.94;101233.86;126930;1309;108875;-76
2021/12/16 09:34:32;;;;;;;23.00;14.10;;;;;;;7.47;87.31;101236.90;126929;1309;107792;-76
2021/12/16 09:37:38;;;;;;;23.50;15.30;;;;;;;7.51;87.03;101235.64;126883;1309;108911;-76
2021/12/16 09:40:49;;;;;;;22.60;14.80;;;;;;;7.54;86.80;101227.06;126965;1309;108927;-76
2021/12/16 09:43:57;;;;;;;20.60;13.80;;;;;;;7.57;86.74;101221.17;126934;1310;108801;-76
2021/12/16 09:47:06;;;;;;;19.80;11.90;;;;;;;7.64;86.91;101220.52;126590;1309;108933;-76
2021/12/16 09:50:15;;;;;;;19.30;13.20;;;;;;;7.66;86.95;101221.30;126781;1309;109091;-76
2021/12/16 09:53:21;;;;;;;18.70;12.30;;;;;;;7.69;87.11;101224.73;126877;1309;106787;-76
2021/12/16 09:56:30;;;;;;;22.60;13.70;;;;;;;7.66;86.97;101221.28;126906;1309;108849;-77
2021/12/16 09:59:36;;;;;;;20.80;12.30;;;;;;;7.61;86.88;101219.11;126936;1309;109078;-76
2021/12/16 10:02:41;;;;;;;15.60;10.50;;;;;;;7.65;87.04;101219.71;126651;1309;108731;-75
2021/12/16 10:05:47;;;;;;;18.70;12.70;;;;;;;7.66;86.96;101216.16;126771;1311;118731;-76
2021/12/16 10:08:52;;;;;;;20.00;12.00;;;;;;;7.68;87.03;101217.07;126838;1309;107254;-75
2021/12/16 10:12:06;;;;;;;20.20;12.50;;;;;;;7.68;87.48;101221.83;126622;1309;108918;-76
2021/12/16 10:18:38;;;;;;;18.50;11.10;;;;;;;7.58;87.90;101231.95;126590;1309;108803;-76
2021/12/16 10:21:45;;;;;;;20.30;12.40;;;;;;;7.57;87.84;101228.13;126590;1309;107749;-76
2021/12/16 10:24:52;;;;;;;18.90;12.60;;;;;;;7.62;87.73;101231.47;126628;1309;108770;-76
2021/12/16 10:28:06;;;;;;;20.20;13.20;;;;;;;7.62;87.55;101236.58;126483;1309;108821;-77
2021/12/16 10:31:14;;;;;;;16.90;10.90;;;;;;;7.61;88.15;101231.53;126422;1309;108831;-74
2021/12/16 10:34:20;;;;;;;21.30;12.40;;;;;;;7.53;88.11;101238.32;126417;1309;108806;-74
2021/12/16 10:37:34;;;;;;;19.30;12.60;;;;;;;7.48;88.77;101241.30;126448;1309;108535;-75
2021/12/16 10:40:43;;;;;;;20.00;13.30;;;;;;;7.46;88.59;101229.76;126442;1309;108885;-76
2021/12/16 10:43:52;;;;;;;21.20;12.00;;;;;;;7.41;89.07;101229.02;126463;1309;108798;-75
2021/12/16 10:47:00;;;;;;;18.30;11.70;;;;;;;7.41;88.53;101224.65;126611;1309;108641;-76
2021/12/16 10:50:16;;;;;;;19.80;13.10;;;;;;;7.44;88.81;101233.09;126475;1309;108876;-76
2021/12/16 10:53:59;;;;;;;18.60;12.60;;;;;;;7.44;88.78;101233.58;126597;1310;108805;-76
2021/12/16 10:57:09;;;;;;;20.60;13.30;;;;;;;7.52;88.35;101226.36;126449;1309;108690;-74
2021/12/16 11:00:18;;;;;;;19.90;11.80;;;;;;;7.51;88.84;101231.90;126422;1309;109064;-74
2021/12/16 11:03:45;;;;;;;19.30;12.90;;;;;;;7.47;88.83;101226.13;126571;1313;108774;-74
2021/12/16 11:06:54;;;;;;;25.70;16.10;;;;;;;7.44;88.80;101223.48;126762;1312;108908;-76
2021/12/16 11:10:09;;;;;;;19.40;13.00;;;;;;;7.47;88.68;101224.34;126814;1315;108574;-76
2021/12/16 11:13:15;;;;;;;18.90;11.90;;;;;;;7.44;88.69;101217.67;126702;1310;108648;-76
2021/12/16 11:16:33;;;;;;;17.40;11.10;;;;;;;7.47;88.34;101205.98;126677;1312;108780;-76
2021/12/16 11:19:49;;;;;;;41.30;17.10;;;;;;;7.55;88.52;101205.90;126615;1309;108750;-76
2021/12/16 11:22:57;;;;;;;20.60;12.80;;;;;;;7.61;88.76;101216.66;126744;1312;108743;-76
2021/12/16 11:26:05;;;;;;;22.60;12.40;;;;;;;7.59;88.91;101220.39;126862;1309;108424;-75
2021/12/16 11:29:13;;;;;;;16.90;11.40;;;;;;;7.50;88.82;101221.14;126755;1314;107845;-76
2021/12/16 11:32:39;;;;;;;22.00;13.70;;;;;;;7.47;88.99;101216.89;126883;1309;108949;-75
2021/12/16 11:35:49;;;;;;;21.40;13.80;;;;;;;7.50;88.77;101214.46;126926;1309;108848;-75
2021/12/16 11:38:59;;;;;;;21.30;13.50;;;;;;;7.50;89.04;101216.77;126887;1308;107763;-76
2021/12/16 11:42:06;;;;;;;16.80;10.70;;;;;;;7.53;88.44;101207.16;126715;1310;107013;-76
2021/12/16 11:45:11;;;;;;;17.70;13.10;;;;;;;7.57;88.61;101203.69;126702;1310;109872;-76
2021/12/16 11:48:30;;;;;;;20.60;13.20;;;;;;;7.60;88.66;101201.35;126848;1308;108723;-75
2021/12/16 11:51:39;;;;;;;19.20;12.60;;;;;;;7.66;88.34;101203.40;126679;1307;108658;-74
2021/12/16 11:54:48;;;;;;;19.00;12.10;;;;;;;7.68;88.69;101198.59;126490;1309;108834;-76
2021/12/16 11:58:01;;;;;;;16.80;11.80;;;;;;;7.64;88.72;101197.80;126515;1309;108951;-76
2021/12/16 12:01:16;;;;;;;21.00;12.80;;;;;;;7.66;88.42;101193.66;126524;1309;108917;-76
2021/12/16 12:04:28;;;;;;;16.10;11.70;;;;;;;7.76;88.48;101190.58;126587;1307;108643;-76
2021/12/16 12:07:42;;;;;;;17.00;11.20;;;;;;;7.81;88.33;101188.13;126598;1313;108739;-76
2021/12/16 12:10:52;;;;;;;32.20;17.30;;;;;;;7.79;88.07;101195.14;126692;1313;106782;-76
2021/12/16 12:14:01;;;;;;;18.50;11.60;;;;;;;7.84;88.26;101197.24;126617;1309;107716;-75
2021/12/16 12:17:10;;;;;;;18.10;11.60;;;;;;;7.86;88.15;101206.87;126696;1309;108651;-75
2021/12/16 12:20:15;;;;;;;20.80;11.80;;;;;;;7.85;87.94;101204.66;126572;1309;109010;-76
2021/12/16 12:23:21;;;;;;;14.80;9.80;;;;;;;7.80;88.02;101206.41;126503;1309;108766;-73
2021/12/16 12:26:28;;;;;;;15.10;9.70;;;;;;;7.80;88.06;101204.48;126500;1307;108765;-77
2021/12/16 12:29:36;;;;;;;14.70;9.50;;;;;;;7.80;88.20;101211.23;126876;1310;107242;-76
2021/12/16 12:32:44;;;;;;;17.00;12.40;;;;;;;7.73;87.94;101211.17;126815;1309;106960;-76
2021/12/16 12:35:49;;;;;;;15.20;10.00;;;;;;;7.72;88.13;101209.71;126686;1309;107192;-74
2021/12/16 12:38:55;;;;;;;16.70;9.90;;;;;;;7.71;87.99;101210.98;126495;1313;109154;-74
2021/12/16 12:42:00;;;;;;;12.90;9.20;;;;;;;7.70;88.04;101213.01;126716;1309;107595;-75
2021/12/16 12:45:09;;;;;;;14.80;9.40;;;;;;;7.71;87.93;101211.15;126919;1310;109692;-75
2021/12/16 12:48:17;;;;;;;13.40;8.50;;;;;;;7.65;87.35;101202.36;126675;1309;108864;-74
2021/12/16 12:51:33;;;;;;;14.10;7.50;;;;;;;7.61;87.68;101208.55;126884;1309;108739;-73
2021/12/16 12:54:42;;;;;;;13.80;8.30;;;;;;;7.62;87.55;101209.11;126612;1313;108817;-74
2021/12/16 12:57:49;;;;;;;11.80;7.60;;;;;;;7.63;87.40;101202.50;126644;1314;108675;-76
2021/12/16 13:00:59;;;;;;;11.00;7.80;;;;;;;7.65;87.56;101195.14;126617;1309;108793;-76
2021/12/16 13:04:09;;;;;;;10.60;7.10;;;;;;;7.68;87.08;101194.94;126711;1309;109090;-76
2021/12/16 13:07:15;;;;;;;10.00;6.30;;;;;;;7.67;86.90;101199.45;127033;1310;108567;-76
2021/12/16 13:10:24;;;;;;;12.40;8.40;;;;;;;7.64;86.41;101210.21;126934;1308;108850;-76
2021/12/16 13:13:35;;;;;;;13.60;8.10;;;;;;;7.64;86.27;101220.55;126468;1310;107835;-76
2021/12/16 13:17:01;;;;;;;12.70;8.50;;;;;;;7.62;86.00;101216.07;126565;1313;108839;-76
2021/12/16 13:23:38;;;;;;;9.40;5.70;;;;;;;7.53;86.00;101212.11;126959;1307;108876;-76
2021/12/16 13:27:01;;;;;;;12.40;6.80;;;;;;;7.53;85.69;101221.67;126939;1310;108642;-77
2021/12/16 13:30:21;;;;;;;8.50;5.20;;;;;;;7.52;84.65;101213.95;126862;1313;108632;-72
2021/12/16 13:33:39;;;;;;;7.10;4.90;;;;;;;7.52;84.78;101201.56;126538;1309;108741;-75
2021/12/16 13:36:50;;;;;;;10.10;5.50;;;;;;;7.48;84.03;101191.20;126613;1308;107373;-76
2021/12/16 13:40:03;;;;;;;6.50;4.10;;;;;;;7.44;84.79;101184.54;126494;1312;109006;-73
2021/12/16 13:43:16;;;;;;;6.50;4.60;;;;;;;7.43;84.86;101181.48;126574;1313;108855;-76
2021/12/16 13:46:33;;;;;;;18.30;13.30;;;;;;;7.45;84.85;101165.38;126827;1310;108571;-76
2021/12/16 14:04:12;;;;;;;11.20;4.00;;;;;;;7.15;84.29;101206.31;126884;1309;108909;-75
2021/12/16 14:07:39;;;;;;;13.40;6.60;;;;;;;7.12;84.00;101207.93;126692;1313;108964;-75
2021/12/16 14:10:55;;;;;;;8.00;5.00;;;;;;;7.10;84.29;101204.16;126932;1307;108424;-76
2021/12/16 14:17:51;;;;;;;18.40;10.00;;;;;;;7.12;84.59;101189.86;126660;1314;108797;-74
2021/12/16 14:25:00;;;;;;;39.90;19.60;;;;;;;7.09;83.61;101197.45;126916;1309;108855;-74
2021/12/16 14:35:12;;;;;;;27.00;16.20;;;;;;;6.95;84.06;101198.64;126516;1314;108819;-74
2021/12/16 14:38:41;;;;;;;22.90;14.50;;;;;;;6.97;83.90;101204.33;126724;1309;108723;-77
2021/12/16 14:42:04;;;;;;;27.60;16.60;;;;;;;6.94;83.43;101201.76;126532;1316;107040;-75
2021/12/16 14:45:26;;;;;;;21.80;14.60;;;;;;;6.87;83.89;101191.78;126463;1309;108830;-80
2021/12/16 14:48:35;;;;;;;18.20;12.80;;;;;;;6.83;83.75;101212.40;126785;1310;108747;-75
2021/12/16 14:51:41;;;;;;;15.70;8.70;;;;;;;6.73;83.72;101226.48;126970;1313;108707;-74
2021/12/16 14:54:54;;;;;;;13.70;7.40;;;;;;;6.63;83.80;101246.13;127046;1309;108746;-74
2021/12/16 14:58:00;;;;;;;13.50;7.50;;;;;;;6.59;84.02;101270.59;126979;1309;108858;-77
2021/12/16 15:01:12;;;;;;;12.70;7.80;;;;;;;6.59;84.04;101275.52;126977;1311;108994;-75
2021/12/16 15:04:23;;;;;;;15.30;8.30;;;;;;;6.61;84.12;101293.29;126996;1312;109421;-76
2021/12/16 15:07:30;;;;;;;14.60;7.70;;;;;;;6.59;83.82;101300.08;126787;1313;108970;-73
2021/12/16 15:10:36;;;;;;;24.90;11.60;;;;;;;6.61;84.07;101317.66;126757;1310;108835;-75
2021/12/16 15:13:48;;;;;;;16.60;8.90;;;;;;;6.63;83.80;101320.17;126647;1316;108900;-78
2021/12/16 15:17:03;;;;;;;17.40;9.80;;;;;;;6.64;84.02;101319.58;126712;1309;108910;-73
2021/12/16 15:37:53;;;;;;;22.20;13.00;;;;;;;6.61;83.51;101285.81;126695;1313;108996;-81
2021/12/16 15:44:21;;;;;;;17.60;12.80;;;;;;;6.54;83.57;101271.98;126832;1315;108500;-83
2021/12/16 15:47:27;;;;;;;16.50;11.70;;;;;;;6.48;83.47;101276.80;127045;1313;108620;-83
2021/12/16 15:50:35;;;;;;;17.90;10.80;;;;;;;6.39;83.37;101266.09;127029;1315;108708;-84
2021/12/16 15:53:43;;;;;;;18.60;12.50;;;;;;;6.32;83.83;101265.67;127071;1315;109381;-86
2021/12/16 15:56:51;;;;;;;21.30;13.90;;;;;;;6.25;83.93;101272.29;126871;1310;108802;-80
2021/12/16 16:00:12;;;;;;;19.00;12.90;;;;;;;6.20;83.94;101277.19;127025;1312;107697;-79
2021/12/16 16:03:19;;;;;;;18.50;12.40;;;;;;;6.17;83.90;101279.70;127063;1315;107565;-81
2021/12/16 16:06:25;;;;;;;14.80;9.00;;;;;;;6.09;83.98;101287.13;126979;1315;109015;-80
2021/12/16 16:09:39;;;;;;;13.60;8.10;;;;;;;6.01;84.06;101291.66;127100;1312;109010;-79
2021/12/16 16:12:44;;;;;;;34.30;26.50;;;;;;;5.97;84.07;101285.08;126863;1315;108802;-83
2021/12/16 16:15:56;;;;;;;28.60;16.20;;;;;;;5.96;84.08;101290.77;126614;1307;108600;-80
2021/12/16 16:19:03;;;;;;;35.20;26.20;;;;;;;5.94;83.99;101302.33;126536;1307;108966;-79
2021/12/16 16:22:10;;;;;;;37.80;20.90;;;;;;;5.91;83.92;101304.61;126879;1315;108803;-81
2021/12/16 16:25:16;;;;;;;82.70;43.10;;;;;;;5.83;83.80;101312.01;127021;1312;108935;-79
2021/12/16 16:28:25;;;;;;;35.40;19.30;;;;;;;5.77;83.72;101309.38;126829;1315;108750;-81
2021/12/16 16:31:33;;;;;;;21.90;14.40;;;;;;;5.72;83.82;101302.27;126652;1315;108745;-80
2021/12/16 16:34:45;;;;;;;48.70;24.60;;;;;;;5.71;83.90;101302.70;126726;1316;108749;-80
2021/12/16 16:37:50;;;;;;;14.40;8.00;;;;;;;5.69;83.98;101310.80;127053;1315;110017;-81
2021/12/16 16:40:59;;;;;;;13.70;9.70;;;;;;;5.61;83.98;101319.95;126740;1313;108901;-80
2021/12/16 16:44:10;;;;;;;18.90;11.00;;;;;;;5.55;84.05;101316.48;126622;1315;108810;-76
2021/12/16 16:47:30;;;;;;;16.80;10.60;;;;;;;5.50;84.37;101318.48;126894;1314;108946;-80